Time;durP1;ratioP1;P1;durP2;ratioP2;P2;SDS_P1;SDS_P2;PMS_P1;PMS_P2;Temp;Humidity;BMP_temperature;BMP_pressure;BME280_temperature;BME280_humidity;BME280_pressure;Samples;Min_cycle;Max_cycle;Signal;HPM_P1;HPM_P2
2022/03/09 00:00:40;;;;;;;12.10;8.00;;;2.90;55.90;;;;;;5093730;28;20443;-57
2022/03/09 00:03:07;;;;;;;13.57;8.70;;;2.90;56.40;;;;;;5094095;28;20443;-57
2022/03/09 00:05:35;;;;;;;9.60;7.43;;;2.90;56.10;;;;;;5093942;28;20531;-59
2022/03/09 00:08:03;;;;;;;10.00;7.70;;;3.00;56.30;;;;;;5093988;28;20473;-57
2022/03/09 00:10:31;;;;;;;11.67;8.67;;;3.00;56.20;;;;;;5093704;28;20934;-59
2022/03/09 00:12:58;;;;;;;15.80;8.80;;;3.00;56.70;;;;;;5093769;28;20799;-59
2022/03/09 00:15:25;;;;;;;11.77;8.77;;;3.00;56.80;;;;;;5093657;28;20479;-58
2022/03/09 00:17:52;;;;;;;13.20;7.67;;;3.00;56.80;;;;;;5094034;28;20474;-58
2022/03/09 00:20:19;;;;;;;8.50;6.63;;;2.80;56.90;;;;;;5093906;28;20444;-58
2022/03/09 00:22:46;;;;;;;11.47;7.90;;;2.80;57.40;;;;;;5094056;28;20448;-57
2022/03/09 00:25:14;;;;;;;14.50;8.53;;;2.80;57.30;;;;;;5093746;28;20451;-57
2022/03/09 00:27:42;;;;;;;11.37;8.00;;;2.70;57.50;;;;;;5093442;28;20472;-60
2022/03/09 00:30:10;;;;;;;8.20;7.23;;;2.60;57.90;;;;;;5093770;28;20427;-59
2022/03/09 00:32:40;;;;;;;11.80;7.83;;;2.60;57.90;;;;;;5094688;28;20498;-58
2022/03/09 00:35:08;;;;;;;11.57;7.53;;;2.60;57.40;;;;;;5097492;28;20536;-59
2022/03/09 00:37:36;;;;;;;12.37;8.17;;;2.60;57.90;;;;;;5097428;28;20965;-59
2022/03/09 00:40:04;;;;;;;11.83;7.90;;;2.50;58.30;;;;;;5097884;28;20447;-57
2022/03/09 00:42:35;;;;;;;9.33;7.73;;;2.50;58.20;;;;;;5097581;28;20447;-57
2022/03/09 00:45:02;;;;;;;10.00;8.07;;;2.60;58.30;;;;;;5097679;28;20443;-57
2022/03/09 00:47:30;;;;;;;8.50;7.33;;;;;;;;;;5097228;28;20476;-58
2022/03/09 00:49:57;;;;;;;7.70;6.87;;;2.40;58.30;;;;;;5097299;28;20448;-59
2022/03/09 00:52:24;;;;;;;8.83;7.63;;;2.40;58.70;;;;;;5098299;28;21009;-57
2022/03/09 00:54:51;;;;;;;13.90;9.23;;;2.40;59.20;;;;;;5097198;28;21020;-57
2022/03/09 00:57:19;;;;;;;12.67;8.33;;;2.40;59.20;;;;;;5097660;28;20470;-58
2022/03/09 00:59:47;;;;;;;12.47;7.90;;;2.30;59.10;;;;;;5097376;28;20451;-58
2022/03/09 01:02:14;;;;;;;13.97;8.63;;;2.40;59.40;;;;;;5097488;28;20469;-59
2022/03/09 01:04:42;;;;;;;14.17;8.67;;;2.20;59.10;;;;;;5097021;28;20532;-58
2022/03/09 01:07:09;;;;;;;15.33;9.00;;;2.20;58.10;;;;;;5097670;28;20962;-58
2022/03/09 01:09:36;;;;;;;10.63;9.20;;;2.30;57.90;;;;;;5097394;28;20516;-58
2022/03/09 01:12:04;;;;;;;12.80;8.77;;;2.30;58.10;;;;;;5096935;28;20430;-58
2022/03/09 01:14:32;;;;;;;13.23;9.10;;;2.30;58.60;;;;;;5097155;28;20443;-58
2022/03/09 01:17:00;;;;;;;13.30;8.80;;;2.30;59.10;;;;;;5096667;28;20487;-58
2022/03/09 01:19:27;;;;;;;14.17;9.13;;;2.20;59.10;;;;;;5096716;28;20961;-57
2022/03/09 01:21:54;;;;;;;10.50;7.47;;;2.20;58.70;;;;;;5096680;28;20539;-57
2022/03/09 01:24:22;;;;;;;11.57;8.10;;;2.10;58.60;;;;;;5096847;28;20457;-57
2022/03/09 01:26:49;;;;;;;14.60;10.03;;;1.90;58.60;;;;;;5096620;28;20467;-57
2022/03/09 01:29:16;;;;;;;10.50;9.13;;;2.00;58.60;;;;;;5095553;28;20487;-57
2022/03/09 01:31:43;;;;;;;10.93;7.60;;;2.00;58.80;;;;;;5095532;28;20483;-57
2022/03/09 01:34:11;;;;;;;14.97;9.17;;;2.10;59.80;;;;;;5095228;28;20455;-57
2022/03/09 01:36:39;;;;;;;10.47;9.10;;;2.10;60.10;;;;;;5095276;28;20570;-59
2022/03/09 01:39:06;;;;;;;12.40;10.13;;;2.20;59.90;;;;;;5095417;28;20448;-57
2022/03/09 01:41:33;;;;;;;16.30;11.03;;;2.20;60.80;;;;;;5094931;28;20808;-57
2022/03/09 01:44:12;;;;;;;12.80;8.73;;;2.10;60.50;;;;;;5094997;28;20478;-57
2022/03/09 01:46:40;;;;;;;10.73;7.90;;;1.90;61.30;;;;;;5094817;28;20973;-57
2022/03/09 01:49:09;;;;;;;13.03;10.07;;;2.00;61.30;;;;;;5095211;28;20444;-57
2022/03/09 01:51:41;;;;;;;13.03;8.80;;;2.00;61.90;;;;;;5094842;28;20447;-57
2022/03/09 01:54:09;;;;;;;17.00;10.40;;;2.00;61.70;;;;;;5094692;28;20913;-57
2022/03/09 01:56:37;;;;;;;15.50;8.83;;;1.90;61.80;;;;;;5094963;28;20479;-57
2022/03/09 01:59:04;;;;;;;11.50;8.80;;;1.90;61.90;;;;;;5095012;28;20451;-57
2022/03/09 02:01:32;;;;;;;17.50;9.27;;;1.80;61.70;;;;;;5095631;28;20765;-57
2022/03/09 02:04:00;;;;;;;10.47;8.63;;;1.60;61.50;;;;;;5095130;28;20443;-57
2022/03/09 02:06:27;;;;;;;12.50;8.77;;;1.50;61.90;;;;;;5094873;28;20463;-59
2022/03/09 02:11:41;;;;;;;15.60;9.30;;;1.40;62.70;;;;;;5094715;28;20411;-58
2022/03/09 02:14:26;;;;;;;13.90;10.07;;;1.60;62.40;;;;;;5094711;28;20443;-58
2022/03/09 02:16:54;;;;;;;13.80;9.03;;;1.70;63.30;;;;;;5094713;28;20566;-58
2022/03/09 02:19:21;;;;;;;12.10;9.53;;;1.70;63.30;;;;;;5094592;28;20447;-58
2022/03/09 02:21:51;;;;;;;12.47;8.40;;;1.60;63.70;;;;;;5094730;28;20450;-58
2022/03/09 02:24:22;;;;;;;15.70;9.00;;;1.70;63.60;;;;;;5094706;28;20755;-58
2022/03/09 02:26:50;;;;;;;16.30;10.30;;;1.70;63.50;;;;;;5094673;28;20456;-58
2022/03/09 02:29:17;;;;;;;13.10;9.30;;;1.70;63.80;;;;;;4979603;28;3288344;-58
2022/03/09 02:31:44;;;;;;;15.93;9.43;;;1.60;65.00;;;;;;5095432;28;20197;-58
2022/03/09 02:34:11;;;;;;;14.70;9.27;;;1.50;64.40;;;;;;5095822;28;20448;-58
2022/03/09 02:36:38;;;;;;;10.30;7.87;;;1.40;64.20;;;;;;5095420;28;20561;-58
2022/03/09 02:39:05;;;;;;;14.23;9.13;;;1.50;65.00;;;;;;5095585;28;20448;-58
2022/03/09 02:41:34;;;;;;;11.60;8.53;;;1.30;63.60;;;;;;5095188;28;20449;-58
2022/03/09 02:44:02;;;;;;;11.30;10.20;;;1.40;64.50;;;;;;5095451;28;20443;-58
2022/03/09 02:46:29;;;;;;;9.73;8.73;;;1.40;64.40;;;;;;5095008;28;20470;-58
2022/03/09 02:48:56;;;;;;;10.67;8.97;;;1.40;65.20;;;;;;5095265;28;20439;-58
2022/03/09 02:51:23;;;;;;;17.43;9.70;;;1.30;65.20;;;;;;5095002;28;20453;-58
2022/03/09 02:53:51;;;;;;;11.43;8.03;;;1.40;65.60;;;;;;5095215;28;20447;-58
2022/03/09 02:56:18;;;;;;;17.10;10.20;;;1.20;65.40;;;;;;5094625;28;20491;-58
2022/03/09 02:58:47;;;;;;;22.27;10.67;;;1.30;65.10;;;;;;5094795;28;20934;-58
2022/03/09 03:01:14;;;;;;;12.23;9.20;;;1.30;65.40;;;;;;5095111;28;20451;-58
2022/03/09 03:03:42;;;;;;;15.00;8.93;;;1.40;66.40;;;;;;5095070;28;20447;-58
2022/03/09 03:06:09;;;;;;;11.20;9.80;;;1.30;66.40;;;;;;5094654;28;21013;-58
2022/03/09 03:08:38;;;;;;;12.13;8.97;;;1.30;66.80;;;;;;5095310;28;20419;-58
2022/03/09 03:11:05;;;;;;;20.30;9.63;;;1.20;67.20;;;;;;5094589;28;20559;-58
2022/03/09 03:13:32;;;;;;;15.23;9.63;;;1.20;67.30;;;;;;5094888;28;20449;-58
2022/03/09 03:16:01;;;;;;;14.80;9.07;;;1.20;67.20;;;;;;5094366;28;20993;-58
2022/03/09 03:18:28;;;;;;;14.20;8.57;;;1.30;67.80;;;;;;5094777;28;20466;-57
2022/03/09 03:20:55;;;;;;;12.30;9.17;;;1.20;67.50;;;;;;5095710;28;20449;-58
2022/03/09 03:23:23;;;;;;;13.80;8.90;;;1.00;67.30;;;;;;5094806;28;20443;-58
2022/03/09 03:25:50;;;;;;;12.70;8.27;;;1.00;67.70;;;;;;5094949;28;20516;-58
2022/03/09 03:28:18;;;;;;;10.97;8.70;;;1.10;66.90;;;;;;5094394;28;20487;-58
2022/03/09 03:30:46;;;;;;;13.63;7.70;;;1.20;67.50;;;;;;5095091;28;20453;-58
2022/03/09 03:33:15;;;;;;;12.10;9.07;;;1.20;68.10;;;;;;5094177;28;20451;-58
2022/03/09 03:35:43;;;;;;;12.83;9.83;;;1.20;68.40;;;;;;5094165;28;20483;-58
2022/03/09 03:38:10;;;;;;;13.80;9.07;;;1.10;68.90;;;;;;5094331;28;20550;-58
2022/03/09 03:40:37;;;;;;;11.13;9.20;;;1.10;68.80;;;;;;5094376;28;20806;-58
2022/03/09 03:43:05;;;;;;;12.30;9.87;;;1.10;69.30;;;;;;5094012;28;20965;-58
2022/03/09 03:45:32;;;;;;;16.03;9.27;;;1.20;69.40;;;;;;5094641;28;20434;-58
2022/03/09 03:48:00;;;;;;;14.20;9.40;;;1.20;68.80;;;;;;5094026;28;20793;-58
2022/03/09 03:50:28;;;;;;;11.77;8.33;;;1.20;69.30;;;;;;5094258;28;20448;-58
2022/03/09 03:52:56;;;;;;;18.70;9.37;;;1.30;69.70;;;;;;5093903;28;20447;-58
2022/03/09 03:55:23;;;;;;;12.73;9.00;;;1.20;68.60;;;;;;5093841;28;20950;-58
2022/03/09 03:57:50;;;;;;;13.40;8.83;;;1.20;69.40;;;;;;5093713;28;20851;-58
2022/03/09 04:00:18;;;;;;;10.10;7.93;;;1.10;69.50;;;;;;5094066;28;20874;-58
2022/03/09 04:02:46;;;;;;;10.70;8.80;;;1.10;69.80;;;;;;5093701;28;20451;-58
2022/03/09 04:05:13;;;;;;;14.03;9.03;;;1.10;69.90;;;;;;5094032;28;20443;-58
2022/03/09 04:07:41;;;;;;;10.27;9.07;;;0.90;69.90;;;;;;5093924;28;20459;-58
2022/03/09 04:10:08;;;;;;;16.40;9.40;;;0.90;70.30;;;;;;5093964;28;20446;-58
2022/03/09 04:12:35;;;;;;;11.10;8.57;;;0.90;70.10;;;;;;5093918;28;20452;-58
2022/03/09 04:15:03;;;;;;;14.40;9.00;;;0.90;70.70;;;;;;5093640;28;20918;-58
2022/03/09 04:17:38;;;;;;;11.73;9.07;;;1.00;69.40;;;;;;5093954;28;20483;-58
2022/03/09 04:20:06;;;;;;;10.70;8.50;;;1.00;69.40;;;;;;5093606;28;20435;-58
2022/03/09 04:22:33;;;;;;;11.13;7.97;;;0.80;69.70;;;;;;5093864;28;20584;-58
2022/03/09 04:25:02;;;;;;;13.70;8.30;;;0.90;69.00;;;;;;5093855;28;20558;-58
2022/03/09 04:27:29;;;;;;;12.70;9.20;;;0.90;69.80;;;;;;5093593;28;20895;-58
2022/03/09 04:29:56;;;;;;;9.83;7.93;;;1.00;70.00;;;;;;5093423;28;20444;-58
2022/03/09 04:32:25;;;;;;;11.73;9.37;;;1.00;70.00;;;;;;5093628;28;20443;-58
2022/03/09 04:34:52;;;;;;;11.20;8.60;;;0.90;69.60;;;;;;5093433;28;20451;-58
2022/03/09 04:37:19;;;;;;;10.83;8.03;;;0.90;70.30;;;;;;5093532;28;20483;-58
2022/03/09 04:39:46;;;;;;;11.67;9.87;;;0.90;70.10;;;;;;5093353;28;20443;-58
2022/03/09 04:42:15;;;;;;;15.03;10.60;;;0.90;70.40;;;;;;5093625;28;20443;-58
2022/03/09 04:44:43;;;;;;;13.17;9.33;;;0.80;70.50;;;;;;5093432;28;20454;-58
2022/03/09 04:47:10;;;;;;;12.93;8.50;;;0.80;72.20;;;;;;5093142;28;20467;-58
2022/03/09 04:49:37;;;;;;;14.60;9.17;;;0.80;71.70;;;;;;5093221;28;20479;-58
2022/03/09 04:52:05;;;;;;;9.20;6.90;;;0.80;71.80;;;;;;5093584;28;20428;-58
2022/03/09 04:54:32;;;;;;;11.60;9.17;;;0.80;71.90;;;;;;5093333;28;20451;-58
2022/03/09 04:56:59;;;;;;;9.20;7.60;;;0.70;72.40;;;;;;5093108;28;20483;-58
2022/03/09 04:59:28;;;;;;;11.80;8.20;;;0.60;72.80;;;;;;5093145;28;20455;-58
2022/03/09 05:01:55;;;;;;;14.80;8.97;;;0.70;72.80;;;;;;5093146;28;20451;-58
2022/03/09 05:04:22;;;;;;;9.60;8.67;;;0.70;72.90;;;;;;5093425;28;20451;-58
2022/03/09 05:06:49;;;;;;;11.77;8.20;;;0.70;72.80;;;;;;5093069;28;21011;-58
2022/03/09 05:09:16;;;;;;;10.23;8.70;;;0.70;72.90;;;;;;5093678;28;20424;-58
2022/03/09 05:11:43;;;;;;;12.70;9.13;;;0.70;72.90;;;;;;5093316;28;20453;-58
2022/03/09 05:14:11;;;;;;;15.73;10.13;;;0.70;73.20;;;;;;5093143;28;20944;-58
2022/03/09 05:16:39;;;;;;;20.27;11.40;;;0.70;73.10;;;;;;5092831;28;20479;-58
2022/03/09 05:19:07;;;;;;;11.43;8.80;;;0.60;72.80;;;;;;5095078;28;20777;-58
2022/03/09 05:21:34;;;;;;;12.03;8.93;;;0.60;73.10;;;;;;5097163;28;20443;-58
2022/03/09 05:24:01;;;;;;;16.87;9.30;;;0.60;73.10;;;;;;5096927;28;20554;-58
2022/03/09 05:26:28;;;;;;;18.63;10.10;;;0.70;73.40;;;;;;5096534;28;20470;-58
2022/03/09 05:28:57;;;;;;;15.00;10.67;;;0.80;73.30;;;;;;5096431;28;20563;-58
2022/03/09 05:31:24;;;;;;;15.20;10.00;;;0.70;72.90;;;;;;5096447;28;20995;-58
2022/03/09 05:33:53;;;;;;;12.60;9.30;;;0.70;73.40;;;;;;5096427;28;20526;-58
2022/03/09 05:36:20;;;;;;;11.43;8.17;;;0.60;73.20;;;;;;5096315;28;20974;-58
2022/03/09 05:38:47;;;;;;;11.07;9.53;;;0.60;72.80;;;;;;5096261;28;20813;-58
2022/03/09 05:41:14;;;;;;;13.83;9.10;;;0.70;72.50;;;;;;5096535;28;20850;-58
2022/03/09 05:43:42;;;;;;;16.13;9.83;;;0.70;72.70;;;;;;5096458;28;20813;-58
2022/03/09 05:46:11;;;;;;;15.73;9.27;;;0.60;73.00;;;;;;5096813;28;20443;-57
2022/03/09 05:48:39;;;;;;;24.10;9.40;;;0.60;73.80;;;;;;5096316;28;20521;-58
2022/03/09 05:51:12;;;;;;;10.60;8.53;;;0.50;74.80;;;;;;5096011;28;20531;-58
2022/03/09 05:53:40;;;;;;;16.10;10.83;;;0.70;74.90;;;;;;5096022;28;20447;-59
2022/03/09 05:56:07;;;;;;;11.33;8.93;;;0.60;74.70;;;;;;5095787;28;20455;-58
2022/03/09 05:58:34;;;;;;;13.37;9.17;;;0.60;74.80;;;;;;5095809;28;20487;-58
2022/03/09 06:01:02;;;;;;;12.87;9.90;;;0.50;75.20;;;;;;5095932;28;20439;-58
2022/03/09 06:03:29;;;;;;;14.10;8.40;;;0.50;75.60;;;;;;5095815;28;20574;-59
2022/03/09 06:05:56;;;;;;;11.87;8.47;;;0.60;76.10;;;;;;5095647;28;20452;-58
2022/03/09 06:08:24;;;;;;;18.03;9.53;;;0.60;76.00;;;;;;5096027;28;20455;-58
2022/03/09 06:10:53;;;;;;;9.60;8.30;;;0.60;75.60;;;;;;5096827;28;20451;-58
2022/03/09 06:13:20;;;;;;;10.90;9.33;;;0.50;75.40;;;;;;5096684;28;20914;-58
2022/03/09 06:15:48;;;;;;;13.63;9.67;;;0.50;75.50;;;;;;5095539;28;20424;-58
2022/03/09 06:18:15;;;;;;;16.30;9.63;;;0.50;75.70;;;;;;5095792;28;20486;-57
2022/03/09 06:20:42;;;;;;;14.57;10.07;;;0.40;74.70;;;;;;5096403;28;20443;-58
2022/03/09 06:23:10;;;;;;;17.90;11.63;;;0.30;74.40;;;;;;5095277;28;20538;-58
2022/03/09 06:25:38;;;;;;;16.03;9.63;;;0.40;75.20;;;;;;5095136;28;20964;-57
2022/03/09 06:28:06;;;;;;;16.13;11.80;;;0.50;74.90;;;;;;5095118;28;20471;-59
2022/03/09 06:30:33;;;;;;;17.90;11.27;;;0.50;73.80;;;;;;5094016;28;20452;-57
2022/03/09 06:33:00;;;;;;;17.53;10.70;;;0.50;73.60;;;;;;5095002;28;20443;-57
2022/03/09 06:35:28;;;;;;;13.47;10.70;;;0.50;73.70;;;;;;5095036;28;20450;-57
2022/03/09 06:37:55;;;;;;;16.97;11.70;;;0.50;74.30;;;;;;5095218;28;20483;-57
2022/03/09 06:40:22;;;;;;;18.37;11.10;;;0.60;74.40;;;;;;5095190;28;20807;-57
2022/03/09 06:42:51;;;;;;;13.17;9.20;;;0.60;74.60;;;;;;5094723;28;20439;-59
2022/03/09 06:45:18;;;;;;;16.87;10.57;;;0.80;74.50;;;;;;5095207;28;20448;-57
2022/03/09 06:47:45;;;;;;;16.47;9.70;;;0.80;74.30;;;;;;5094854;28;20467;-58
2022/03/09 06:50:13;;;;;;;16.70;10.50;;;0.80;73.30;;;;;;5095118;28;20444;-58
2022/03/09 06:52:40;;;;;;;18.27;11.47;;;0.80;73.50;;;;;;5095158;28;20523;-58
2022/03/09 06:55:09;;;;;;;17.00;10.70;;;0.80;73.50;;;;;;5094801;28;20925;-58
2022/03/09 06:57:36;;;;;;;13.90;10.23;;;0.90;74.20;;;;;;5094518;28;21033;-58
2022/03/09 07:00:07;;;;;;;15.47;10.90;;;1.00;73.80;;;;;;5094807;28;20450;-58
2022/03/09 07:02:34;;;;;;;20.87;10.17;;;1.10;72.50;;;;;;5094699;28;20459;-58
2022/03/09 07:05:01;;;;;;;15.83;10.10;;;1.10;73.00;;;;;;5094939;28;20812;-58
2022/03/09 07:07:28;;;;;;;18.20;11.00;;;1.20;72.90;;;;;;5094786;28;20550;-58
2022/03/09 07:09:56;;;;;;;12.70;10.37;;;1.30;72.20;;;;;;5094590;28;20788;-58
2022/03/09 07:12:23;;;;;;;11.27;10.17;;;1.30;72.40;;;;;;5094156;28;20455;-58
2022/03/09 07:14:50;;;;;;;15.07;11.00;;;1.40;72.80;;;;;;5094443;28;20454;-58
2022/03/09 07:17:18;;;;;;;14.97;11.30;;;1.40;71.70;;;;;;5094416;28;20523;-58
2022/03/09 07:19:46;;;;;;;19.67;11.60;;;1.40;72.10;;;;;;5094178;28;20914;-58
2022/03/09 07:22:13;;;;;;;13.87;9.97;;;1.40;70.70;;;;;;5094726;28;20432;-58
2022/03/09 07:24:40;;;;;;;14.50;10.30;;;1.50;71.10;;;;;;5093935;28;20459;-58
2022/03/09 07:27:07;;;;;;;11.40;10.20;;;1.60;71.00;;;;;;5093930;28;20981;-58
2022/03/09 07:29:34;;;;;;;17.77;10.37;;;1.70;70.80;;;;;;5094053;28;20478;-58
2022/03/09 07:32:01;;;;;;;14.23;11.27;;;1.70;69.90;;;;;;5094051;28;20839;-58
2022/03/09 07:34:30;;;;;;;17.87;10.40;;;1.80;70.10;;;;;;5094227;28;20534;-58
2022/03/09 07:36:58;;;;;;;18.00;11.47;;;1.90;68.30;;;;;;5094107;28;20550;-58
2022/03/09 07:39:27;;;;;;;12.07;9.57;;;1.90;67.60;;;;;;5093879;28;21007;-58
2022/03/09 07:41:55;;;;;;;15.90;10.10;;;2.00;67.80;;;;;;5093486;28;20447;-58
2022/03/09 07:44:22;;;;;;;14.77;11.37;;;2.20;68.20;;;;;;5093630;28;20451;-59
2022/03/09 07:46:49;;;;;;;19.67;11.33;;;2.20;67.30;;;;;;5093706;28;20964;-58
2022/03/09 07:49:18;;;;;;;14.33;10.80;;;2.30;68.90;;;;;;5093600;28;20934;-58
2022/03/09 07:51:47;;;;;;;17.37;12.00;;;2.30;68.80;;;;;;5093699;28;20494;-58
2022/03/09 07:54:14;;;;;;;13.00;9.90;;;2.40;67.20;;;;;;5093516;28;20531;-58
2022/03/09 07:56:41;;;;;;;26.03;11.03;;;2.50;68.50;;;;;;5093831;28;20468;-58
2022/03/09 07:59:11;;;;;;;13.37;9.73;;;2.50;67.30;;;;;;5093698;28;20845;-58
2022/03/09 08:01:39;;;;;;;13.70;10.40;;;2.60;67.10;;;;;;5094088;28;20462;-58
2022/03/09 08:04:08;;;;;;;13.40;10.43;;;2.60;67.00;;;;;;5093701;28;20534;-58
2022/03/09 08:06:37;;;;;;;14.33;11.40;;;2.60;66.00;;;;;;5093380;28;20467;-58
2022/03/09 08:09:06;;;;;;;15.37;9.10;;;;;;;;;;5093844;28;20470;-58
2022/03/09 08:11:33;;;;;;;14.50;11.10;;;2.80;65.70;;;;;;5094247;28;20542;-58
2022/03/09 08:14:00;;;;;;;20.80;11.07;;;2.90;64.90;;;;;;5093501;28;20461;-58
2022/03/09 08:16:27;;;;;;;18.80;10.93;;;3.00;62.50;;;;;;5093883;28;20554;-58
2022/03/09 08:18:54;;;;;;;14.37;10.90;;;3.00;62.40;;;;;;5093274;28;20993;-58
2022/03/09 08:21:21;;;;;;;11.13;9.87;;;3.10;63.80;;;;;;5093235;28;20470;-58
2022/03/09 08:23:48;;;;;;;12.83;10.03;;;3.10;63.00;;;;;;5093217;28;20591;-58
2022/03/09 08:26:18;;;;;;;15.20;10.00;;;3.30;62.50;;;;;;5093770;28;20562;-58
2022/03/09 08:28:46;;;;;;;14.20;11.07;;;3.30;60.40;;;;;;5093053;28;20471;-58
2022/03/09 08:31:13;;;;;;;12.73;10.20;;;3.40;61.00;;;;;;5093829;28;20447;-58
2022/03/09 08:33:41;;;;;;;16.33;11.40;;;3.50;62.50;;;;;;5093077;28;20811;-58
2022/03/09 08:36:10;;;;;;;13.43;10.87;;;3.70;62.10;;;;;;5093364;28;20483;-58
2022/03/09 08:38:38;;;;;;;12.13;9.10;;;3.70;60.40;;;;;;5093846;28;20995;-58
2022/03/09 08:41:05;;;;;;;13.47;9.93;;;3.80;60.50;;;;;;5093985;28;20443;-58
2022/03/09 08:43:34;;;;;;;21.37;11.43;;;3.90;62.80;;;;;;5093139;28;20806;-58
2022/03/09 08:46:01;;;;;;;13.43;9.73;;;4.10;60.50;;;;;;5093274;28;20539;-58
2022/03/09 08:48:29;;;;;;;14.73;11.77;;;4.20;58.70;;;;;;5093344;28;20451;-59
2022/03/09 08:50:56;;;;;;;12.60;9.10;;;4.20;58.70;;;;;;5093293;28;20864;-58
2022/03/09 08:53:23;;;;;;;11.67;8.13;;;4.40;59.10;;;;;;5093749;28;20542;-58
2022/03/09 08:55:50;;;;;;;22.47;11.00;;;4.50;57.70;;;;;;5097436;28;20509;-58
2022/03/09 08:58:18;;;;;;;13.37;9.67;;;4.70;58.40;;;;;;5096912;28;20575;-58
2022/03/09 09:00:46;;;;;;;13.63;9.40;;;4.70;58.10;;;;;;5096961;28;20447;-58
2022/03/09 09:03:13;;;;;;;11.57;7.70;;;4.80;57.50;;;;;;5096726;28;20802;-58
2022/03/09 09:05:40;;;;;;;13.83;9.30;;;4.90;57.30;;;;;;5097215;28;20836;-58
2022/03/09 09:08:07;;;;;;;15.07;9.80;;;5.00;57.60;;;;;;5096920;28;20546;-58
2022/03/09 09:10:36;;;;;;;14.80;8.93;;;5.20;57.00;;;;;;5097035;28;20451;-58
2022/03/09 09:13:05;;;;;;;14.60;9.97;;;5.40;56.50;;;;;;5097070;28;20454;-59
2022/03/09 09:15:32;;;;;;;11.50;8.40;;;5.40;56.80;;;;;;5096957;28;20451;-58
2022/03/09 09:18:02;;;;;;;17.00;9.03;;;5.50;56.00;;;;;;5096470;28;20976;-58
2022/03/09 09:20:29;;;;;;;16.87;10.27;;;5.50;55.50;;;;;;5097048;28;20458;-58
2022/03/09 09:22:58;;;;;;;11.60;8.60;;;5.60;55.50;;;;;;5096525;28;20462;-58
2022/03/09 09:25:27;;;;;;;11.97;9.30;;;5.70;55.00;;;;;;5096986;28;20463;-58
2022/03/09 09:27:55;;;;;;;20.13;9.50;;;5.60;55.00;;;;;;5096082;28;20547;-58
2022/03/09 09:30:23;;;;;;;12.47;9.80;;;5.80;55.00;;;;;;5096195;28;20432;-58
2022/03/09 09:32:51;;;;;;;14.53;10.33;;;5.90;54.90;;;;;;5096272;28;20882;-58
2022/03/09 09:35:20;;;;;;;12.57;9.00;;;6.00;54.70;;;;;;5096440;28;20449;-58
2022/03/09 09:37:47;;;;;;;22.43;11.23;;;6.00;54.80;;;;;;5096231;28;20483;-58
2022/03/09 09:40:15;;;;;;;13.30;10.00;;;6.20;54.50;;;;;;5096379;28;20447;-59
2022/03/09 09:42:42;;;;;;;20.63;10.33;;;6.30;54.50;;;;;;5096185;28;20921;-59
2022/03/09 09:45:10;;;;;;;10.63;9.17;;;6.50;54.60;;;;;;5096200;28;20454;-59
2022/03/09 09:47:38;;;;;;;12.97;9.40;;;6.70;55.00;;;;;;5096236;28;20550;-59
2022/03/09 09:50:07;;;;;;;15.30;11.20;;;6.80;54.20;;;;;;5096195;28;20535;-59
2022/03/09 09:52:36;;;;;;;13.13;10.47;;;6.90;54.40;;;;;;5095661;28;20558;-59
2022/03/09 09:55:07;;;;;;;14.87;11.70;;;7.10;54.90;;;;;;5095759;28;20625;-59
2022/03/09 09:57:35;;;;;;;17.33;11.00;;;7.20;53.70;;;;;;5095625;28;20499;-59
2022/03/09 10:00:05;;;;;;;11.87;8.97;;;7.30;53.60;;;;;;5095795;28;20444;-59
2022/03/09 10:02:32;;;;;;;13.20;10.43;;;7.80;53.40;;;;;;5096404;28;20531;-59
2022/03/09 10:04:59;;;;;;;14.77;12.00;;;8.90;53.10;;;;;;5095536;28;20459;-60
2022/03/09 10:07:26;;;;;;;15.50;11.47;;;9.90;51.20;;;;;;5095774;28;20569;-58
2022/03/09 10:09:55;;;;;;;17.00;10.63;;;11.10;49.90;;;;;;5095536;28;21025;-58
2022/03/09 10:12:30;;;;;;;16.27;11.03;;;11.70;48.20;;;;;;5095394;28;20451;-58
2022/03/09 10:14:59;;;;;;;13.17;10.90;;;12.20;47.50;;;;;;5095635;28;20447;-58
2022/03/09 10:17:29;;;;;;;13.13;10.60;;;13.10;46.30;;;;;;5095347;28;20467;-58
2022/03/09 10:20:07;;;;;;;14.97;11.20;;;13.50;46.40;;;;;;5095573;28;20436;-58
2022/03/09 10:22:35;;;;;;;18.77;12.40;;;13.70;45.50;;;;;;5095295;28;20898;-58
2022/03/09 10:25:18;;;;;;;12.87;10.40;;;13.20;45.80;;;;;;5095381;28;20458;-58
2022/03/09 10:27:48;;;;;;;14.40;11.40;;;13.80;45.20;;;;;;5095322;28;20465;-58
2022/03/09 10:30:16;;;;;;;17.40;13.27;;;14.20;45.20;;;;;;5094771;28;20479;-58
2022/03/09 10:32:48;;;;;;;13.63;11.80;;;15.20;45.10;;;;;;5095260;28;20493;-58
2022/03/09 10:35:17;;;;;;;16.27;12.90;;;15.40;45.10;;;;;;5095329;28;20426;-58
2022/03/09 10:37:48;;;;;;;15.23;12.00;;;15.00;43.90;;;;;;5095523;28;20545;-58
2022/03/09 10:40:19;;;;;;;14.30;11.90;;;14.30;44.70;;;;;;5095302;28;20455;-58
2022/03/09 10:42:46;;;;;;;18.77;12.07;;;14.20;45.00;;;;;;5095331;28;20424;-59
2022/03/09 10:45:14;;;;;;;14.27;11.13;;;14.30;44.20;;;;;;5094975;28;20448;-58
2022/03/09 10:47:43;;;;;;;17.40;12.60;;;14.30;44.30;;;;;;5094809;28;20468;-58
2022/03/09 10:50:13;;;;;;;17.20;12.40;;;13.70;43.90;;;;;;5094568;28;20481;-58
2022/03/09 10:52:50;;;;;;;16.40;13.33;;;14.10;44.30;;;;;;5094729;28;20459;-58
2022/03/09 10:55:35;;;;;;;16.13;12.87;;;14.20;43.10;;;;;;5094924;28;20455;-58
2022/03/09 10:58:11;;;;;;;20.67;13.40;;;14.90;43.50;;;;;;5095074;28;20463;-58
2022/03/09 11:00:40;;;;;;;20.50;13.30;;;15.20;43.50;;;;;;5095030;28;20455;-58
2022/03/09 11:03:09;;;;;;;14.70;11.60;;;15.70;44.10;;;;;;5094463;28;20534;-58
2022/03/09 11:05:37;;;;;;;20.90;14.67;;;15.70;43.30;;;;;;5094591;28;20444;-58
2022/03/09 11:08:05;;;;;;;15.70;12.10;;;15.70;43.50;;;;;;5094738;28;20470;-59
2022/03/09 11:10:34;;;;;;;16.47;12.70;;;16.20;43.30;;;;;;5094501;28;20474;-59
2022/03/09 11:13:02;;;;;;;15.40;12.10;;;16.10;46.10;;;;;;5094508;28;20534;-58
2022/03/09 11:15:30;;;;;;;17.50;13.27;;;16.40;45.80;;;;;;5094440;28;20625;-58
2022/03/09 11:17:58;;;;;;;16.83;13.37;;;16.90;43.00;;;;;;5093455;28;20581;-59
2022/03/09 11:20:25;;;;;;;16.43;13.77;;;17.00;43.10;;;;;;5094428;28;20450;-59
2022/03/09 11:22:53;;;;;;;17.70;13.83;;;16.50;41.60;;;;;;5093927;28;20444;-58
2022/03/09 11:25:24;;;;;;;17.47;14.23;;;17.10;42.50;;;;;;5094260;28;20465;-59
2022/03/09 11:27:55;;;;;;;21.20;14.30;;;17.10;40.00;;;;;;5094056;28;20969;-59
2022/03/09 11:30:25;;;;;;;19.33;14.70;;;17.00;39.90;;;;;;5054116;28;20917;-59
2022/03/09 11:32:54;;;;;;;17.20;14.83;;;17.20;38.90;;;;;;5054174;28;20445;-58
2022/03/09 11:35:36;;;;;;;17.47;14.87;;;17.40;39.70;;;;;;5053812;28;20452;-59
2022/03/09 11:38:04;;;;;;;19.83;13.87;;;17.40;38.70;;;;;;5053971;28;20473;-58
2022/03/09 11:40:33;;;;;;;16.30;13.73;;;16.50;37.70;;;;;;5054043;28;20469;-59
2022/03/09 11:43:29;;;;;;;17.43;13.87;;;16.80;38.90;;;;;;5053582;28;20484;-59
2022/03/09 11:45:56;;;;;;;17.53;12.70;;;16.60;39.50;;;;;;5053411;28;20429;-58
2022/03/09 11:48:23;;;;;;;17.63;13.30;;;17.70;38.60;;;;;;5053470;28;20479;-59
2022/03/09 11:51:13;;;;;;;15.93;12.80;;;17.60;37.90;;;;;;5053374;28;20532;-58
2022/03/09 11:53:44;;;;;;;16.80;13.70;;;17.80;38.50;;;;;;5053391;28;20480;-58
2022/03/09 11:56:25;;;;;;;16.60;13.40;;;17.80;37.50;;;;;;5053675;28;20452;-58
2022/03/09 11:59:11;;;;;;;15.50;12.87;;;16.30;36.50;;;;;;5053366;28;20562;-58
2022/03/09 12:02:13;;;;;;;18.20;13.20;;;16.40;38.10;;;;;;5052975;28;20435;-58
2022/03/09 12:04:51;;;;;;;17.07;12.90;;;17.60;37.90;;;;;;5053681;28;20409;-58
2022/03/09 12:07:49;;;;;;;15.87;13.00;;;18.00;38.10;;;;;;5053159;28;20475;-58
2022/03/09 12:10:17;;;;;;;14.70;12.73;;;18.30;37.70;;;;;;5011480;28;20519;-58
2022/03/09 12:13:16;;;;;;;18.40;12.87;;;18.40;37.60;;;;;;5043431;28;21007;-59
2022/03/09 12:16:14;;;;;;;15.27;13.00;;;18.50;35.60;;;;;;5053263;28;20539;-59
2022/03/09 12:18:46;;;;;;;16.10;12.60;;;18.10;34.80;;;;;;5053249;28;20469;-59
2022/03/09 12:21:15;;;;;;;14.43;11.50;;;17.70;34.90;;;;;;5052938;28;20410;-59
2022/03/09 12:24:33;;;;;;;15.30;13.53;;;16.90;35.40;;;;;;5053709;28;20449;-59
2022/03/09 12:27:01;;;;;;;18.30;12.27;;;17.70;35.70;;;;;;5052912;28;20833;-59
2022/03/09 12:29:46;;;;;;;17.53;13.57;;;16.70;35.80;;;;;;5083811;28;20833;-58
2022/03/09 12:32:17;;;;;;;19.47;13.73;;;16.40;36.30;;;;;;5097586;28;20433;-60
2022/03/09 12:34:46;;;;;;;14.70;12.73;;;16.80;37.30;;;;;;5097727;28;20775;-58
2022/03/09 12:37:15;;;;;;;18.60;13.50;;;17.20;37.40;;;;;;5097879;28;20463;-59
2022/03/09 12:39:50;;;;;;;16.60;12.90;;;16.90;35.90;;;;;;5097141;28;20483;-58
2022/03/09 12:42:18;;;;;;;15.20;12.47;;;17.20;36.70;;;;;;5097568;28;20431;-59
2022/03/09 12:44:46;;;;;;;16.30;12.13;;;17.10;37.00;;;;;;5097828;28;20546;-58
2022/03/09 12:47:17;;;;;;;14.10;12.27;;;17.50;35.80;;;;;;5097325;28;20474;-59
2022/03/09 12:49:46;;;;;;;13.07;11.20;;;17.90;37.10;;;;;;5097123;28;20435;-59
2022/03/09 12:52:16;;;;;;;13.87;12.03;;;18.10;36.00;;;;;;5097158;28;20453;-59